sensor_id;sensor_type;location;lat;lon;timestamp;P1;durP1;ratioP1;P2;durP2;ratioP2
26319;SDS011;14024;52.226;5.200;2023-03-14T00:00:24;29.48;;;4.93;;
26319;SDS011;14024;52.226;5.200;2023-03-14T00:02:53;19.67;;;4.60;;
26319;SDS011;14024;52.226;5.200;2023-03-14T00:05:19;23.15;;;4.82;;
26319;SDS011;14024;52.226;5.200;2023-03-14T00:07:45;22.90;;;5.32;;
26319;SDS011;14024;52.226;5.200;2023-03-14T00:10:12;24.05;;;4.75;;
26319;SDS011;14024;52.226;5.200;2023-03-14T00:12:39;21.13;;;5.35;;
26319;SDS011;14024;52.226;5.200;2023-03-14T00:15:05;30.45;;;6.32;;
26319;SDS011;14024;52.226;5.200;2023-03-14T00:17:32;19.25;;;4.95;;
26319;SDS011;14024;52.226;5.200;2023-03-14T00:19:58;15.15;;;3.72;;
26319;SDS011;14024;52.226;5.200;2023-03-14T00:22:29;27.63;;;4.07;;
26319;SDS011;14024;52.226;5.200;2023-03-14T00:24:56;22.13;;;5.05;;
26319;SDS011;14024;52.226;5.200;2023-03-14T00:27:22;14.10;;;3.50;;
26319;SDS011;14024;52.226;5.200;2023-03-14T00:29:48;20.90;;;3.80;;
26319;SDS011;14024;52.226;5.200;2023-03-14T00:32:14;19.50;;;3.97;;
26319;SDS011;14024;52.226;5.200;2023-03-14T00:34:40;21.13;;;4.28;;
26319;SDS011;14024;52.226;5.200;2023-03-14T00:37:06;17.58;;;3.75;;
26319;SDS011;14024;52.226;5.200;2023-03-14T00:39:32;26.52;;;5.10;;
26319;SDS011;14024;52.226;5.200;2023-03-14T00:41:58;22.42;;;4.03;;
26319;SDS011;14024;52.226;5.200;2023-03-14T00:44:24;16.70;;;3.53;;
26319;SDS011;14024;52.226;5.200;2023-03-14T00:46:50;14.60;;;4.30;;
26319;SDS011;14024;52.226;5.200;2023-03-14T00:49:16;22.02;;;4.75;;
26319;SDS011;14024;52.226;5.200;2023-03-14T00:51:42;17.98;;;4.07;;
26319;SDS011;14024;52.226;5.200;2023-03-14T00:54:08;28.10;;;5.97;;
26319;SDS011;14024;52.226;5.200;2023-03-14T00:56:34;17.98;;;4.40;;
26319;SDS011;14024;52.226;5.200;2023-03-14T00:59:00;23.60;;;4.10;;
26319;SDS011;14024;52.226;5.200;2023-03-14T01:01:26;19.58;;;4.35;;
26319;SDS011;14024;52.226;5.200;2023-03-14T01:03:53;19.27;;;4.57;;
26319;SDS011;14024;52.226;5.200;2023-03-14T01:06:20;18.35;;;5.13;;
26319;SDS011;14024;52.226;5.200;2023-03-14T01:08:47;15.43;;;3.42;;
26319;SDS011;14024;52.226;5.200;2023-03-14T01:11:14;21.27;;;4.57;;
26319;SDS011;14024;52.226;5.200;2023-03-14T01:13:40;11.77;;;3.05;;
26319;SDS011;14024;52.226;5.200;2023-03-14T01:16:07;13.07;;;3.20;;
26319;SDS011;14024;52.226;5.200;2023-03-14T01:18:34;15.52;;;3.17;;
26319;SDS011;14024;52.226;5.200;2023-03-14T01:21:00;13.18;;;3.35;;
26319;SDS011;14024;52.226;5.200;2023-03-14T01:23:26;12.57;;;3.38;;
26319;SDS011;14024;52.226;5.200;2023-03-14T01:25:52;15.07;;;4.65;;
26319;SDS011;14024;52.226;5.200;2023-03-14T01:28:18;17.70;;;4.57;;
26319;SDS011;14024;52.226;5.200;2023-03-14T01:30:44;12.20;;;4.05;;
26319;SDS011;14024;52.226;5.200;2023-03-14T01:33:10;17.63;;;4.43;;
26319;SDS011;14024;52.226;5.200;2023-03-14T01:35:38;30.27;;;4.90;;
26319;SDS011;14024;52.226;5.200;2023-03-14T01:38:03;17.00;;;4.75;;
26319;SDS011;14024;52.226;5.200;2023-03-14T01:40:29;18.77;;;5.07;;
26319;SDS011;14024;52.226;5.200;2023-03-14T01:42:56;18.98;;;5.72;;
26319;SDS011;14024;52.226;5.200;2023-03-14T01:48:07;17.20;;;3.88;;
26319;SDS011;14024;52.226;5.200;2023-03-14T01:50:33;18.35;;;4.03;;
26319;SDS011;14024;52.226;5.200;2023-03-14T01:52:59;24.75;;;4.47;;
26319;SDS011;14024;52.226;5.200;2023-03-14T01:55:25;17.20;;;4.40;;
26319;SDS011;14024;52.226;5.200;2023-03-14T01:57:58;16.92;;;4.40;;
26319;SDS011;14024;52.226;5.200;2023-03-14T02:00:25;22.42;;;5.95;;
26319;SDS011;14024;52.226;5.200;2023-03-14T02:02:54;23.80;;;4.97;;
26319;SDS011;14024;52.226;5.200;2023-03-14T02:05:22;21.15;;;3.80;;
26319;SDS011;14024;52.226;5.200;2023-03-14T02:07:49;20.98;;;3.70;;
26319;SDS011;14024;52.226;5.200;2023-03-14T02:10:16;9.32;;;3.75;;
26319;SDS011;14024;52.226;5.200;2023-03-14T02:12:44;32.33;;;4.20;;
26319;SDS011;14024;52.226;5.200;2023-03-14T02:15:10;16.35;;;3.95;;
26319;SDS011;14024;52.226;5.200;2023-03-14T02:17:36;22.98;;;4.25;;
26319;SDS011;14024;52.226;5.200;2023-03-14T02:22:33;24.50;;;4.07;;
26319;SDS011;14024;52.226;5.200;2023-03-14T02:27:54;20.58;;;3.80;;
26319;SDS011;14024;52.226;5.200;2023-03-14T02:30:21;16.08;;;3.65;;
26319;SDS011;14024;52.226;5.200;2023-03-14T02:32:48;16.85;;;3.25;;
26319;SDS011;14024;52.226;5.200;2023-03-14T02:35:21;11.63;;;3.50;;
26319;SDS011;14024;52.226;5.200;2023-03-14T02:37:49;12.20;;;3.30;;
26319;SDS011;14024;52.226;5.200;2023-03-14T02:40:16;17.25;;;3.83;;
26319;SDS011;14024;52.226;5.200;2023-03-14T02:42:42;9.63;;;2.58;;
26319;SDS011;14024;52.226;5.200;2023-03-14T02:47:35;11.88;;;2.22;;
26319;SDS011;14024;52.226;5.200;2023-03-14T02:50:14;11.07;;;3.10;;
26319;SDS011;14024;52.226;5.200;2023-03-14T02:52:41;21.58;;;4.70;;
26319;SDS011;14024;52.226;5.200;2023-03-14T02:55:07;16.25;;;3.45;;
26319;SDS011;14024;52.226;5.200;2023-03-14T02:57:33;18.73;;;2.70;;
26319;SDS011;14024;52.226;5.200;2023-03-14T03:00:00;12.80;;;2.72;;
26319;SDS011;14024;52.226;5.200;2023-03-14T03:02:29;14.48;;;2.90;;
26319;SDS011;14024;52.226;5.200;2023-03-14T03:04:55;18.85;;;3.30;;
26319;SDS011;14024;52.226;5.200;2023-03-14T03:07:21;18.40;;;3.58;;
26319;SDS011;14024;52.226;5.200;2023-03-14T03:09:47;8.30;;;2.50;;
26319;SDS011;14024;52.226;5.200;2023-03-14T03:12:14;16.20;;;4.20;;
26319;SDS011;14024;52.226;5.200;2023-03-14T03:14:40;13.02;;;3.47;;
26319;SDS011;14024;52.226;5.200;2023-03-14T03:17:06;13.43;;;3.75;;
26319;SDS011;14024;52.226;5.200;2023-03-14T03:19:33;19.90;;;3.05;;
26319;SDS011;14024;52.226;5.200;2023-03-14T03:21:59;12.68;;;4.18;;
26319;SDS011;14024;52.226;5.200;2023-03-14T03:24:25;13.40;;;3.53;;
26319;SDS011;14024;52.226;5.200;2023-03-14T03:26:51;16.40;;;3.42;;
26319;SDS011;14024;52.226;5.200;2023-03-14T03:29:17;21.02;;;3.35;;
26319;SDS011;14024;52.226;5.200;2023-03-14T03:31:43;15.98;;;3.35;;
26319;SDS011;14024;52.226;5.200;2023-03-14T03:34:13;18.33;;;4.13;;
26319;SDS011;14024;52.226;5.200;2023-03-14T03:36:39;13.63;;;3.28;;
26319;SDS011;14024;52.226;5.200;2023-03-14T03:39:05;12.75;;;3.33;;
26319;SDS011;14024;52.226;5.200;2023-03-14T03:41:31;13.13;;;3.50;;
26319;SDS011;14024;52.226;5.200;2023-03-14T03:43:58;13.20;;;4.07;;
26319;SDS011;14024;52.226;5.200;2023-03-14T03:46:24;21.92;;;3.83;;
26319;SDS011;14024;52.226;5.200;2023-03-14T03:48:54;14.63;;;3.67;;
26319;SDS011;14024;52.226;5.200;2023-03-14T03:51:20;24.02;;;3.47;;
26319;SDS011;14024;52.226;5.200;2023-03-14T03:53:46;20.13;;;3.78;;
26319;SDS011;14024;52.226;5.200;2023-03-14T03:56:11;16.25;;;3.63;;
26319;SDS011;14024;52.226;5.200;2023-03-14T03:58:38;17.60;;;3.65;;
26319;SDS011;14024;52.226;5.200;2023-03-14T04:01:04;13.05;;;3.40;;
26319;SDS011;14024;52.226;5.200;2023-03-14T04:03:31;22.63;;;4.38;;
26319;SDS011;14024;52.226;5.200;2023-03-14T04:06:01;17.00;;;3.28;;
26319;SDS011;14024;52.226;5.200;2023-03-14T04:08:28;15.38;;;3.50;;
26319;SDS011;14024;52.226;5.200;2023-03-14T04:10:57;16.48;;;3.58;;
26319;SDS011;14024;52.226;5.200;2023-03-14T04:13:24;27.80;;;5.40;;
26319;SDS011;14024;52.226;5.200;2023-03-14T04:15:51;15.55;;;4.05;;
26319;SDS011;14024;52.226;5.200;2023-03-14T04:18:17;24.48;;;4.32;;
26319;SDS011;14024;52.226;5.200;2023-03-14T04:20:43;19.60;;;3.58;;
26319;SDS011;14024;52.226;5.200;2023-03-14T04:23:09;18.88;;;5.13;;
26319;SDS011;14024;52.226;5.200;2023-03-14T04:25:35;15.75;;;3.17;;
26319;SDS011;14024;52.226;5.200;2023-03-14T04:28:01;18.05;;;3.42;;
26319;SDS011;14024;52.226;5.200;2023-03-14T04:30:29;10.45;;;3.47;;
26319;SDS011;14024;52.226;5.200;2023-03-14T04:32:55;18.38;;;3.85;;
26319;SDS011;14024;52.226;5.200;2023-03-14T04:35:21;21.33;;;4.38;;
26319;SDS011;14024;52.226;5.200;2023-03-14T04:37:46;11.55;;;3.17;;
26319;SDS011;14024;52.226;5.200;2023-03-14T04:40:14;22.38;;;3.00;;
26319;SDS011;14024;52.226;5.200;2023-03-14T04:42:40;16.52;;;4.20;;
26319;SDS011;14024;52.226;5.200;2023-03-14T04:45:06;23.25;;;4.50;;
26319;SDS011;14024;52.226;5.200;2023-03-14T04:47:32;15.65;;;3.28;;
26319;SDS011;14024;52.226;5.200;2023-03-14T04:49:58;15.15;;;3.35;;
26319;SDS011;14024;52.226;5.200;2023-03-14T04:52:25;16.20;;;3.10;;
26319;SDS011;14024;52.226;5.200;2023-03-14T04:54:51;19.73;;;3.33;;
26319;SDS011;14024;52.226;5.200;2023-03-14T04:57:17;13.15;;;3.40;;
26319;SDS011;14024;52.226;5.200;2023-03-14T04:59:43;14.65;;;2.95;;
26319;SDS011;14024;52.226;5.200;2023-03-14T05:02:09;17.65;;;3.78;;
26319;SDS011;14024;52.226;5.200;2023-03-14T05:04:35;16.42;;;3.97;;
26319;SDS011;14024;52.226;5.200;2023-03-14T05:07:01;13.95;;;3.42;;
26319;SDS011;14024;52.226;5.200;2023-03-14T05:09:27;16.10;;;3.83;;
26319;SDS011;14024;52.226;5.200;2023-03-14T05:11:53;20.08;;;3.70;;
26319;SDS011;14024;52.226;5.200;2023-03-14T05:14:19;13.50;;;4.03;;
26319;SDS011;14024;52.226;5.200;2023-03-14T05:16:45;17.80;;;3.63;;
26319;SDS011;14024;52.226;5.200;2023-03-14T05:19:11;22.77;;;5.10;;
26319;SDS011;14024;52.226;5.200;2023-03-14T05:21:37;13.18;;;3.30;;
26319;SDS011;14024;52.226;5.200;2023-03-14T05:24:03;11.75;;;3.75;;
26319;SDS011;14024;52.226;5.200;2023-03-14T05:26:29;12.23;;;3.30;;
26319;SDS011;14024;52.226;5.200;2023-03-14T05:28:55;19.40;;;3.97;;
26319;SDS011;14024;52.226;5.200;2023-03-14T05:31:21;11.20;;;3.35;;
26319;SDS011;14024;52.226;5.200;2023-03-14T05:33:47;17.50;;;3.90;;
26319;SDS011;14024;52.226;5.200;2023-03-14T05:36:13;10.27;;;3.63;;
26319;SDS011;14024;52.226;5.200;2023-03-14T05:38:39;14.82;;;4.97;;
26319;SDS011;14024;52.226;5.200;2023-03-14T05:41:05;18.48;;;4.75;;
26319;SDS011;14024;52.226;5.200;2023-03-14T05:43:31;13.68;;;4.45;;
26319;SDS011;14024;52.226;5.200;2023-03-14T05:45:57;15.52;;;4.40;;
26319;SDS011;14024;52.226;5.200;2023-03-14T05:48:23;12.15;;;4.03;;
26319;SDS011;14024;52.226;5.200;2023-03-14T05:50:54;12.05;;;4.43;;
26319;SDS011;14024;52.226;5.200;2023-03-14T05:53:20;15.57;;;4.22;;
26319;SDS011;14024;52.226;5.200;2023-03-14T05:55:46;18.52;;;5.13;;
26319;SDS011;14024;52.226;5.200;2023-03-14T05:58:12;15.57;;;4.07;;
26319;SDS011;14024;52.226;5.200;2023-03-14T06:00:38;21.38;;;5.88;;
26319;SDS011;14024;52.226;5.200;2023-03-14T06:03:04;16.17;;;5.88;;
26319;SDS011;14024;52.226;5.200;2023-03-14T06:05:30;18.05;;;5.30;;
26319;SDS011;14024;52.226;5.200;2023-03-14T06:07:56;16.27;;;5.35;;
26319;SDS011;14024;52.226;5.200;2023-03-14T06:10:22;18.77;;;5.95;;
26319;SDS011;14024;52.226;5.200;2023-03-14T06:12:48;16.27;;;5.40;;
26319;SDS011;14024;52.226;5.200;2023-03-14T06:15:14;12.65;;;5.70;;
26319;SDS011;14024;52.226;5.200;2023-03-14T06:17:40;9.73;;;4.97;;
26319;SDS011;14024;52.226;5.200;2023-03-14T06:20:06;10.60;;;4.70;;
26319;SDS011;14024;52.226;5.200;2023-03-14T06:22:32;14.25;;;3.97;;
26319;SDS011;14024;52.226;5.200;2023-03-14T06:24:58;13.40;;;3.33;;
26319;SDS011;14024;52.226;5.200;2023-03-14T06:27:24;8.25;;;2.88;;
26319;SDS011;14024;52.226;5.200;2023-03-14T06:29:50;7.22;;;1.98;;
26319;SDS011;14024;52.226;5.200;2023-03-14T06:32:16;7.85;;;1.50;;
26319;SDS011;14024;52.226;5.200;2023-03-14T06:34:43;7.18;;;1.67;;
26319;SDS011;14024;52.226;5.200;2023-03-14T06:37:09;5.50;;;1.92;;
26319;SDS011;14024;52.226;5.200;2023-03-14T06:39:34;3.13;;;1.67;;
26319;SDS011;14024;52.226;5.200;2023-03-14T06:42:00;4.05;;;1.67;;
26319;SDS011;14024;52.226;5.200;2023-03-14T06:44:26;6.72;;;2.13;;
26319;SDS011;14024;52.226;5.200;2023-03-14T06:46:52;5.47;;;2.00;;
26319;SDS011;14024;52.226;5.200;2023-03-14T06:49:18;4.75;;;2.00;;
26319;SDS011;14024;52.226;5.200;2023-03-14T06:51:44;8.05;;;2.22;;
26319;SDS011;14024;52.226;5.200;2023-03-14T06:54:10;3.22;;;2.08;;
26319;SDS011;14024;52.226;5.200;2023-03-14T06:56:37;7.32;;;2.00;;
26319;SDS011;14024;52.226;5.200;2023-03-14T06:59:03;6.07;;;2.65;;
26319;SDS011;14024;52.226;5.200;2023-03-14T07:01:29;3.22;;;1.90;;
26319;SDS011;14024;52.226;5.200;2023-03-14T07:03:57;4.70;;;2.13;;
26319;SDS011;14024;52.226;5.200;2023-03-14T07:06:23;3.80;;;1.85;;
26319;SDS011;14024;52.226;5.200;2023-03-14T07:08:50;4.30;;;1.60;;
26319;SDS011;14024;52.226;5.200;2023-03-14T07:11:16;3.88;;;1.35;;
26319;SDS011;14024;52.226;5.200;2023-03-14T07:13:42;8.23;;;1.80;;
26319;SDS011;14024;52.226;5.200;2023-03-14T07:16:08;5.25;;;1.60;;
26319;SDS011;14024;52.226;5.200;2023-03-14T07:18:34;9.57;;;2.03;;
26319;SDS011;14024;52.226;5.200;2023-03-14T07:21:00;8.85;;;1.65;;
26319;SDS011;14024;52.226;5.200;2023-03-14T07:23:26;5.93;;;1.90;;
26319;SDS011;14024;52.226;5.200;2023-03-14T07:25:52;13.55;;;1.60;;
26319;SDS011;14024;52.226;5.200;2023-03-14T07:28:18;3.30;;;1.48;;
26319;SDS011;14024;52.226;5.200;2023-03-14T07:30:45;8.00;;;1.73;;
26319;SDS011;14024;52.226;5.200;2023-03-14T07:33:12;9.25;;;2.10;;
26319;SDS011;14024;52.226;5.200;2023-03-14T07:35:38;6.43;;;1.67;;
26319;SDS011;14024;52.226;5.200;2023-03-14T07:38:04;8.63;;;1.42;;
26319;SDS011;14024;52.226;5.200;2023-03-14T07:40:29;8.55;;;1.52;;
26319;SDS011;14024;52.226;5.200;2023-03-14T07:42:55;4.60;;;1.48;;
26319;SDS011;14024;52.226;5.200;2023-03-14T07:45:22;3.88;;;1.40;;
26319;SDS011;14024;52.226;5.200;2023-03-14T07:47:48;8.38;;;1.50;;
26319;SDS011;14024;52.226;5.200;2023-03-14T07:50:14;14.48;;;2.10;;
26319;SDS011;14024;52.226;5.200;2023-03-14T07:52:40;12.38;;;1.63;;
26319;SDS011;14024;52.226;5.200;2023-03-14T07:55:06;13.43;;;1.85;;
26319;SDS011;14024;52.226;5.200;2023-03-14T07:57:32;12.98;;;2.53;;
26319;SDS011;14024;52.226;5.200;2023-03-14T07:59:58;9.02;;;1.88;;
26319;SDS011;14024;52.226;5.200;2023-03-14T08:02:24;7.53;;;1.85;;
26319;SDS011;14024;52.226;5.200;2023-03-14T08:04:50;9.15;;;2.13;;
26319;SDS011;14024;52.226;5.200;2023-03-14T08:07:16;13.73;;;2.85;;
26319;SDS011;14024;52.226;5.200;2023-03-14T08:09:42;10.43;;;2.13;;
26319;SDS011;14024;52.226;5.200;2023-03-14T08:12:08;8.10;;;1.10;;
26319;SDS011;14024;52.226;5.200;2023-03-14T08:14:34;10.45;;;1.70;;
26319;SDS011;14024;52.226;5.200;2023-03-14T08:17:00;8.80;;;2.08;;
26319;SDS011;14024;52.226;5.200;2023-03-14T08:19:26;14.95;;;1.42;;
26319;SDS011;14024;52.226;5.200;2023-03-14T08:21:52;11.05;;;1.73;;
26319;SDS011;14024;52.226;5.200;2023-03-14T08:24:18;9.80;;;1.52;;
26319;SDS011;14024;52.226;5.200;2023-03-14T08:26:44;10.00;;;3.05;;
26319;SDS011;14024;52.226;5.200;2023-03-14T08:29:10;8.15;;;1.20;;
26319;SDS011;14024;52.226;5.200;2023-03-14T08:31:37;7.68;;;1.10;;
26319;SDS011;14024;52.226;5.200;2023-03-14T08:34:03;4.53;;;1.05;;
26319;SDS011;14024;52.226;5.200;2023-03-14T08:36:31;7.22;;;1.23;;
26319;SDS011;14024;52.226;5.200;2023-03-14T08:38:57;5.05;;;1.30;;
26319;SDS011;14024;52.226;5.200;2023-03-14T08:41:23;5.00;;;1.10;;
26319;SDS011;14024;52.226;5.200;2023-03-14T08:43:49;12.98;;;1.95;;
26319;SDS011;14024;52.226;5.200;2023-03-14T08:46:15;6.05;;;2.05;;
26319;SDS011;14024;52.226;5.200;2023-03-14T08:48:41;20.08;;;3.40;;
26319;SDS011;14024;52.226;5.200;2023-03-14T08:51:08;10.90;;;2.28;;
26319;SDS011;14024;52.226;5.200;2023-03-14T08:53:35;10.13;;;2.75;;
26319;SDS011;14024;52.226;5.200;2023-03-14T08:56:01;13.25;;;2.40;;
26319;SDS011;14024;52.226;5.200;2023-03-14T08:58:28;19.85;;;2.22;;
26319;SDS011;14024;52.226;5.200;2023-03-14T09:00:54;12.45;;;2.97;;
26319;SDS011;14024;52.226;5.200;2023-03-14T09:03:21;21.20;;;3.60;;
26319;SDS011;14024;52.226;5.200;2023-03-14T09:05:48;23.08;;;2.95;;
26319;SDS011;14024;52.226;5.200;2023-03-14T09:08:14;23.77;;;2.88;;
26319;SDS011;14024;52.226;5.200;2023-03-14T09:10:40;14.77;;;3.15;;
26319;SDS011;14024;52.226;5.200;2023-03-14T09:13:06;20.40;;;3.63;;
26319;SDS011;14024;52.226;5.200;2023-03-14T09:15:32;28.50;;;3.45;;
26319;SDS011;14024;52.226;5.200;2023-03-14T09:17:58;21.98;;;3.38;;
26319;SDS011;14024;52.226;5.200;2023-03-14T09:20:24;18.73;;;3.28;;
26319;SDS011;14024;52.226;5.200;2023-03-14T09:22:50;17.95;;;3.28;;
26319;SDS011;14024;52.226;5.200;2023-03-14T09:25:16;23.85;;;4.38;;
26319;SDS011;14024;52.226;5.200;2023-03-14T09:27:42;16.08;;;3.03;;
26319;SDS011;14024;52.226;5.200;2023-03-14T09:30:10;18.73;;;4.22;;
26319;SDS011;14024;52.226;5.200;2023-03-14T09:32:36;23.58;;;3.80;;
26319;SDS011;14024;52.226;5.200;2023-03-14T09:35:03;21.20;;;2.97;;
26319;SDS011;14024;52.226;5.200;2023-03-14T09:37:29;21.92;;;3.15;;
26319;SDS011;14024;52.226;5.200;2023-03-14T09:39:54;14.80;;;2.72;;
26319;SDS011;14024;52.226;5.200;2023-03-14T09:42:25;19.92;;;3.20;;
26319;SDS011;14024;52.226;5.200;2023-03-14T09:44:56;30.35;;;3.30;;
26319;SDS011;14024;52.226;5.200;2023-03-14T09:47:23;21.98;;;4.47;;
26319;SDS011;14024;52.226;5.200;2023-03-14T09:49:49;22.92;;;3.58;;
26319;SDS011;14024;52.226;5.200;2023-03-14T09:52:17;26.77;;;4.10;;
26319;SDS011;14024;52.226;5.200;2023-03-14T09:54:49;27.85;;;4.70;;
26319;SDS011;14024;52.226;5.200;2023-03-14T09:57:17;25.80;;;3.03;;
26319;SDS011;14024;52.226;5.200;2023-03-14T09:59:47;27.10;;;3.10;;
26319;SDS011;14024;52.226;5.200;2023-03-14T10:02:15;20.88;;;3.13;;
26319;SDS011;14024;52.226;5.200;2023-03-14T10:04:41;15.52;;;2.72;;
26319;SDS011;14024;52.226;5.200;2023-03-14T10:07:19;26.35;;;2.92;;
26319;SDS011;14024;52.226;5.200;2023-03-14T10:09:48;17.85;;;3.47;;
26319;SDS011;14024;52.226;5.200;2023-03-14T10:12:14;20.95;;;2.65;;
26319;SDS011;14024;52.226;5.200;2023-03-14T10:14:49;27.08;;;4.05;;
26319;SDS011;14024;52.226;5.200;2023-03-14T10:17:16;36.15;;;5.03;;
26319;SDS011;14024;52.226;5.200;2023-03-14T10:19:58;26.17;;;3.28;;
26319;SDS011;14024;52.226;5.200;2023-03-14T10:22:26;19.67;;;4.15;;
26319;SDS011;14024;52.226;5.200;2023-03-14T10:24:57;18.98;;;3.35;;
26319;SDS011;14024;52.226;5.200;2023-03-14T10:27:32;34.65;;;4.88;;
26319;SDS011;14024;52.226;5.200;2023-03-14T10:29:59;30.27;;;4.68;;
26319;SDS011;14024;52.226;5.200;2023-03-14T10:32:32;23.58;;;3.30;;
26319;SDS011;14024;52.226;5.200;2023-03-14T10:37:34;18.95;;;3.28;;
26319;SDS011;14024;52.226;5.200;2023-03-14T10:40:00;28.67;;;3.72;;
26319;SDS011;14024;52.226;5.200;2023-03-14T10:42:34;33.13;;;6.55;;
26319;SDS011;14024;52.226;5.200;2023-03-14T10:45:04;23.48;;;3.63;;
26319;SDS011;14024;52.226;5.200;2023-03-14T10:47:32;29.10;;;4.07;;
26319;SDS011;14024;52.226;5.200;2023-03-14T10:50:19;28.15;;;3.75;;
26319;SDS011;14024;52.226;5.200;2023-03-14T10:52:47;16.38;;;3.47;;
26319;SDS011;14024;52.226;5.200;2023-03-14T10:55:14;24.02;;;3.10;;
26319;SDS011;14024;52.226;5.200;2023-03-14T10:57:40;22.17;;;4.43;;
26319;SDS011;14024;52.226;5.200;2023-03-14T11:00:16;21.00;;;4.20;;
26319;SDS011;14024;52.226;5.200;2023-03-14T11:05:21;21.33;;;3.17;;
26319;SDS011;14024;52.226;5.200;2023-03-14T11:07:52;19.85;;;4.38;;
26319;SDS011;14024;52.226;5.200;2023-03-14T11:10:20;16.88;;;2.80;;
26319;SDS011;14024;52.226;5.200;2023-03-14T11:12:52;21.70;;;3.10;;
26319;SDS011;14024;52.226;5.200;2023-03-14T11:23:18;19.80;;;3.35;;
26319;SDS011;14024;52.226;5.200;2023-03-14T11:25:52;18.35;;;3.80;;
26319;SDS011;14024;52.226;5.200;2023-03-14T11:33:15;23.27;;;3.45;;
26319;SDS011;14024;52.226;5.200;2023-03-14T11:36:03;21.13;;;3.67;;
26319;SDS011;14024;52.226;5.200;2023-03-14T11:40:54;15.55;;;2.42;;
26319;SDS011;14024;52.226;5.200;2023-03-14T11:45:58;23.45;;;2.88;;
26319;SDS011;14024;52.226;5.200;2023-03-14T11:48:34;11.40;;;2.03;;
26319;SDS011;14024;52.226;5.200;2023-03-14T11:51:02;12.63;;;2.90;;
26319;SDS011;14024;52.226;5.200;2023-03-14T11:56:02;16.77;;;2.45;;
26319;SDS011;14024;52.226;5.200;2023-03-14T11:58:33;18.30;;;2.40;;
26319;SDS011;14024;52.226;5.200;2023-03-14T12:01:02;22.05;;;3.03;;
26319;SDS011;14024;52.226;5.200;2023-03-14T12:08:36;17.98;;;2.70;;
26319;SDS011;14024;52.226;5.200;2023-03-14T12:11:05;27.65;;;2.75;;
26319;SDS011;14024;52.226;5.200;2023-03-14T12:13:36;18.83;;;2.50;;
26319;SDS011;14024;52.226;5.200;2023-03-14T12:18:47;14.55;;;2.20;;
26319;SDS011;14024;52.226;5.200;2023-03-14T12:21:13;13.15;;;2.65;;
26319;SDS011;14024;52.226;5.200;2023-03-14T12:23:43;15.10;;;3.05;;
26319;SDS011;14024;52.226;5.200;2023-03-14T12:26:18;10.40;;;1.85;;
26319;SDS011;14024;52.226;5.200;2023-03-14T12:28:49;14.50;;;2.47;;
26319;SDS011;14024;52.226;5.200;2023-03-14T12:41:43;8.27;;;2.00;;
26319;SDS011;14024;52.226;5.200;2023-03-14T12:46:56;5.65;;;1.27;;
26319;SDS011;14024;52.226;5.200;2023-03-14T12:49:28;9.82;;;2.15;;
26319;SDS011;14024;52.226;5.200;2023-03-14T12:51:58;11.73;;;1.73;;
26319;SDS011;14024;52.226;5.200;2023-03-14T12:54:36;14.32;;;2.55;;
26319;SDS011;14024;52.226;5.200;2023-03-14T12:59:40;13.55;;;2.25;;
26319;SDS011;14024;52.226;5.200;2023-03-14T13:02:21;8.73;;;2.13;;
26319;SDS011;14024;52.226;5.200;2023-03-14T13:05:02;8.63;;;1.70;;
26319;SDS011;14024;52.226;5.200;2023-03-14T13:12:41;13.52;;;3.13;;
26319;SDS011;14024;52.226;5.200;2023-03-14T13:15:22;8.13;;;2.20;;
26319;SDS011;14024;52.226;5.200;2023-03-14T13:17:49;15.77;;;1.90;;
26319;SDS011;14024;52.226;5.200;2023-03-14T13:20:18;10.43;;;2.83;;
26319;SDS011;14024;52.226;5.200;2023-03-14T13:22:47;6.63;;;1.90;;
26319;SDS011;14024;52.226;5.200;2023-03-14T13:25:14;7.18;;;2.05;;
26319;SDS011;14024;52.226;5.200;2023-03-14T13:27:41;12.95;;;1.67;;
26319;SDS011;14024;52.226;5.200;2023-03-14T13:30:28;13.52;;;2.17;;
26319;SDS011;14024;52.226;5.200;2023-03-14T13:32:55;10.23;;;1.95;;
26319;SDS011;14024;52.226;5.200;2023-03-14T13:35:28;15.45;;;2.38;;
26319;SDS011;14024;52.226;5.200;2023-03-14T13:37:58;12.30;;;2.10;;
26319;SDS011;14024;52.226;5.200;2023-03-14T13:40:31;14.50;;;2.67;;
26319;SDS011;14024;52.226;5.200;2023-03-14T13:43:02;15.98;;;2.25;;
26319;SDS011;14024;52.226;5.200;2023-03-14T13:45:28;25.08;;;3.10;;
26319;SDS011;14024;52.226;5.200;2023-03-14T13:47:54;18.92;;;2.88;;
26319;SDS011;14024;52.226;5.200;2023-03-14T13:50:20;15.73;;;2.13;;
26319;SDS011;14024;52.226;5.200;2023-03-14T13:52:46;12.07;;;1.88;;
26319;SDS011;14024;52.226;5.200;2023-03-14T13:55:15;8.55;;;2.00;;
26319;SDS011;14024;52.226;5.200;2023-03-14T14:00:17;9.82;;;1.88;;
26319;SDS011;14024;52.226;5.200;2023-03-14T14:02:44;14.57;;;2.25;;
26319;SDS011;14024;52.226;5.200;2023-03-14T14:05:10;8.40;;;1.90;;
26319;SDS011;14024;52.226;5.200;2023-03-14T14:07:36;11.13;;;1.85;;
26319;SDS011;14024;52.226;5.200;2023-03-14T14:10:03;11.75;;;2.60;;
26319;SDS011;14024;52.226;5.200;2023-03-14T14:12:30;17.00;;;2.45;;
26319;SDS011;14024;52.226;5.200;2023-03-14T14:14:59;5.88;;;2.00;;
26319;SDS011;14024;52.226;5.200;2023-03-14T14:18:09;9.20;;;1.70;;
26319;SDS011;14024;52.226;5.200;2023-03-14T14:20:35;8.05;;;1.75;;
26319;SDS011;14024;52.226;5.200;2023-03-14T14:23:02;5.35;;;1.38;;
26319;SDS011;14024;52.226;5.200;2023-03-14T14:25:28;10.65;;;2.00;;
26319;SDS011;14024;52.226;5.200;2023-03-14T14:27:55;7.95;;;1.50;;
26319;SDS011;14024;52.226;5.200;2023-03-14T14:32:47;6.03;;;1.83;;
26319;SDS011;14024;52.226;5.200;2023-03-14T14:37:48;12.13;;;1.80;;
26319;SDS011;14024;52.226;5.200;2023-03-14T14:40:19;7.72;;;1.40;;
26319;SDS011;14024;52.226;5.200;2023-03-14T14:42:45;8.57;;;1.85;;
26319;SDS011;14024;52.226;5.200;2023-03-14T14:45:19;12.98;;;2.50;;
26319;SDS011;14024;52.226;5.200;2023-03-14T14:47:55;6.53;;;2.20;;
26319;SDS011;14024;52.226;5.200;2023-03-14T14:50:33;7.88;;;1.95;;
26319;SDS011;14024;52.226;5.200;2023-03-14T14:53:03;11.15;;;2.00;;
26319;SDS011;14024;52.226;5.200;2023-03-14T14:55:33;10.65;;;1.88;;
26319;SDS011;14024;52.226;5.200;2023-03-14T14:58:11;9.98;;;2.40;;
26319;SDS011;14024;52.226;5.200;2023-03-14T15:00:39;8.90;;;1.85;;
26319;SDS011;14024;52.226;5.200;2023-03-14T15:03:05;12.35;;;2.20;;
26319;SDS011;14024;52.226;5.200;2023-03-14T15:05:37;10.25;;;1.77;;
26319;SDS011;14024;52.226;5.200;2023-03-14T15:08:08;10.80;;;2.92;;
26319;SDS011;14024;52.226;5.200;2023-03-14T15:10:34;10.38;;;2.30;;
26319;SDS011;14024;52.226;5.200;2023-03-14T15:13:00;9.32;;;1.95;;
26319;SDS011;14024;52.226;5.200;2023-03-14T15:15:26;10.10;;;1.77;;
26319;SDS011;14024;52.226;5.200;2023-03-14T15:17:52;5.80;;;1.80;;
26319;SDS011;14024;52.226;5.200;2023-03-14T15:20:18;7.82;;;2.30;;
26319;SDS011;14024;52.226;5.200;2023-03-14T15:22:44;4.90;;;1.55;;
26319;SDS011;14024;52.226;5.200;2023-03-14T15:25:11;12.50;;;1.50;;
26319;SDS011;14024;52.226;5.200;2023-03-14T15:27:37;8.60;;;2.10;;
26319;SDS011;14024;52.226;5.200;2023-03-14T15:30:11;12.25;;;1.80;;
26319;SDS011;14024;52.226;5.200;2023-03-14T15:32:37;8.90;;;1.70;;
26319;SDS011;14024;52.226;5.200;2023-03-14T15:35:03;5.78;;;1.63;;
26319;SDS011;14024;52.226;5.200;2023-03-14T15:37:30;9.18;;;1.75;;
26319;SDS011;14024;52.226;5.200;2023-03-14T15:39:56;16.13;;;2.78;;
26319;SDS011;14024;52.226;5.200;2023-03-14T15:42:25;9.20;;;2.40;;
26319;SDS011;14024;52.226;5.200;2023-03-14T15:44:51;10.63;;;2.13;;
26319;SDS011;14024;52.226;5.200;2023-03-14T15:47:17;10.98;;;1.77;;
26319;SDS011;14024;52.226;5.200;2023-03-14T15:49:43;12.88;;;1.73;;
26319;SDS011;14024;52.226;5.200;2023-03-14T15:52:09;14.52;;;2.33;;